sensor_id;sensor_type;location;lat;lon;timestamp;pressure;altitude;pressure_sealevel;temperature;humidity
48517;BME280;34310;51.904;4.256;2023-04-29T00:01:32;101690.31;;;15.57;61.31
48517;BME280;34310;51.904;4.256;2023-04-29T00:04:00;101690.22;;;15.56;61.15
48517;BME280;34310;51.904;4.256;2023-04-29T00:06:28;101691.13;;;15.56;61.29
48517;BME280;34310;51.904;4.256;2023-04-29T00:08:55;101691.94;;;15.55;61.18
48517;BME280;34310;51.904;4.256;2023-04-29T00:11:22;101701.53;;;15.56;61.31
48517;BME280;34310;51.904;4.256;2023-04-29T00:13:50;101703.25;;;15.56;61.26
48517;BME280;34310;51.904;4.256;2023-04-29T00:16:17;101694.44;;;15.54;61.31
48517;BME280;34310;51.904;4.256;2023-04-29T00:18:44;101706.66;;;15.55;61.27
48517;BME280;34310;51.904;4.256;2023-04-29T00:21:12;101702.25;;;15.54;61.38
48517;BME280;34310;51.904;4.256;2023-04-29T00:23:39;101704.84;;;15.54;61.25
48517;BME280;34310;51.904;4.256;2023-04-29T00:26:07;101707.47;;;15.54;61.22
48517;BME280;34310;51.904;4.256;2023-04-29T00:28:34;101706.56;;;15.53;61.30
48517;BME280;34310;51.904;4.256;2023-04-29T00:31:01;101706.56;;;15.53;61.26
48517;BME280;34310;51.904;4.256;2023-04-29T00:33:29;101709.16;;;15.53;61.28
48517;BME280;34310;51.904;4.256;2023-04-29T00:35:56;101713.47;;;15.53;61.27
48517;BME280;34310;51.904;4.256;2023-04-29T00:38:24;101710.75;;;15.51;61.47
48517;BME280;34310;51.904;4.256;2023-04-29T00:40:51;101715.16;;;15.52;61.45
48517;BME280;34310;51.904;4.256;2023-04-29T00:43:19;101714.28;;;15.52;61.23
48517;BME280;34310;51.904;4.256;2023-04-29T00:45:47;101716.78;;;15.50;61.33
48517;BME280;34310;51.904;4.256;2023-04-29T00:48:15;101722.88;;;15.50;61.31
48517;BME280;34310;51.904;4.256;2023-04-29T00:50:42;101723.78;;;15.51;61.48
48517;BME280;34310;51.904;4.256;2023-04-29T00:53:10;101715.06;;;15.50;61.32
48517;BME280;34310;51.904;4.256;2023-04-29T00:55:42;101727.19;;;15.50;61.43
48517;BME280;34310;51.904;4.256;2023-04-29T00:58:10;101726.28;;;15.49;61.35
48517;BME280;34310;51.904;4.256;2023-04-29T01:00:37;101728.00;;;15.49;61.46
48517;BME280;34310;51.904;4.256;2023-04-29T01:03:05;101724.47;;;15.48;61.29
48517;BME280;34310;51.904;4.256;2023-04-29T01:05:34;101722.69;;;15.47;61.48
48517;BME280;34310;51.904;4.256;2023-04-29T01:11:00;101729.69;;;15.48;61.50
48517;BME280;34310;51.904;4.256;2023-04-29T01:13:45;101742.59;;;15.47;61.40
48517;BME280;34310;51.904;4.256;2023-04-29T01:16:43;101740.91;;;15.47;61.49
48517;BME280;34310;51.904;4.256;2023-04-29T01:21:47;101739.91;;;15.45;61.36
48517;BME280;34310;51.904;4.256;2023-04-29T01:24:15;101739.91;;;15.45;61.52
48517;BME280;34310;51.904;4.256;2023-04-29T01:26:54;101744.22;;;15.45;61.57
48517;BME280;34310;51.904;4.256;2023-04-29T01:29:39;101745.09;;;15.45;61.52
48517;BME280;34310;51.904;4.256;2023-04-29T01:32:16;101744.22;;;15.45;61.39
48517;BME280;34310;51.904;4.256;2023-04-29T01:34:48;101746.81;;;15.45;61.49
48517;BME280;34310;51.904;4.256;2023-04-29T01:40:19;101751.13;;;15.44;61.51
48517;BME280;34310;51.904;4.256;2023-04-29T01:43:01;101753.72;;;15.44;61.52
48517;BME280;34310;51.904;4.256;2023-04-29T01:45:32;101755.41;;;15.44;61.56
48517;BME280;34310;51.904;4.256;2023-04-29T01:48:00;101758.81;;;15.43;61.56
48517;BME280;34310;51.904;4.256;2023-04-29T01:50:29;101752.72;;;15.42;61.41
48517;BME280;34310;51.904;4.256;2023-04-29T01:52:56;101759.63;;;15.42;61.47
48517;BME280;34310;51.904;4.256;2023-04-29T01:55:24;101759.63;;;15.42;61.41
48517;BME280;34310;51.904;4.256;2023-04-29T01:57:52;101759.63;;;15.42;61.49
48517;BME280;34310;51.904;4.256;2023-04-29T02:00:19;101758.72;;;15.41;61.64
48517;BME280;34310;51.904;4.256;2023-04-29T02:02:46;101763.03;;;15.41;61.68
48517;BME280;34310;51.904;4.256;2023-04-29T02:05:14;101763.94;;;15.41;61.49
48517;BME280;34310;51.904;4.256;2023-04-29T02:07:41;101758.63;;;15.40;61.49
48517;BME280;34310;51.904;4.256;2023-04-29T02:10:10;101766.44;;;15.40;61.66
48517;BME280;34310;51.904;4.256;2023-04-29T02:12:38;101769.03;;;15.40;61.49
48517;BME280;34310;51.904;4.256;2023-04-29T02:15:06;101777.63;;;15.39;61.52
48517;BME280;34310;51.904;4.256;2023-04-29T02:17:34;101769.84;;;15.39;61.52
48517;BME280;34310;51.904;4.256;2023-04-29T02:20:02;101770.72;;;15.39;61.71
48517;BME280;34310;51.904;4.256;2023-04-29T02:22:29;101782.84;;;15.39;61.54
48517;BME280;34310;51.904;4.256;2023-04-29T02:24:57;101788.06;;;15.39;61.52
48517;BME280;34310;51.904;4.256;2023-04-29T02:27:24;101782.84;;;15.39;61.63
48517;BME280;34310;51.904;4.256;2023-04-29T02:29:52;101790.66;;;15.39;61.72
48517;BME280;34310;51.904;4.256;2023-04-29T02:32:20;101794.94;;;15.38;61.60
48517;BME280;34310;51.904;4.256;2023-04-29T02:34:47;101788.84;;;15.38;61.50
48517;BME280;34310;51.904;4.256;2023-04-29T02:37:15;101788.06;;;15.39;61.56
48517;BME280;34310;51.904;4.256;2023-04-29T02:39:42;101800.97;;;15.37;61.52
48517;BME280;34310;51.904;4.256;2023-04-29T02:42:10;101805.25;;;15.37;61.53
48517;BME280;34310;51.904;4.256;2023-04-29T02:44:37;101802.66;;;15.37;61.69
48517;BME280;34310;51.904;4.256;2023-04-29T02:47:04;101806.97;;;15.36;61.60
48517;BME280;34310;51.904;4.256;2023-04-29T02:49:32;101817.38;;;15.36;61.69
48517;BME280;34310;51.904;4.256;2023-04-29T02:51:59;101812.16;;;15.36;61.58
48517;BME280;34310;51.904;4.256;2023-04-29T02:54:26;101815.56;;;15.35;61.77
48517;BME280;34310;51.904;4.256;2023-04-29T02:56:53;101811.16;;;15.34;61.81
48517;BME280;34310;51.904;4.256;2023-04-29T02:59:21;101813.78;;;15.34;61.61
48517;BME280;34310;51.904;4.256;2023-04-29T03:01:48;101812.06;;;15.35;61.62
48517;BME280;34310;51.904;4.256;2023-04-29T03:04:16;101817.16;;;15.33;61.63
48517;BME280;34310;51.904;4.256;2023-04-29T03:06:43;101814.56;;;15.33;61.79
48517;BME280;34310;51.904;4.256;2023-04-29T03:09:11;101822.38;;;15.33;61.67
48517;BME280;34310;51.904;4.256;2023-04-29T03:11:39;101825.88;;;15.34;61.65
48517;BME280;34310;51.904;4.256;2023-04-29T03:14:07;101822.38;;;15.33;61.66
48517;BME280;34310;51.904;4.256;2023-04-29T03:16:34;101830.19;;;15.33;61.80
48517;BME280;34310;51.904;4.256;2023-04-29T03:19:02;101832.78;;;15.33;61.70
48517;BME280;34310;51.904;4.256;2023-04-29T03:21:29;101829.28;;;15.33;61.76
48517;BME280;34310;51.904;4.256;2023-04-29T03:23:57;101846.56;;;15.32;61.60
48517;BME280;34310;51.904;4.256;2023-04-29T03:26:24;101832.66;;;15.32;61.82
48517;BME280;34310;51.904;4.256;2023-04-29T03:28:52;101832.53;;;15.30;61.66
48517;BME280;34310;51.904;4.256;2023-04-29T03:31:19;101836.94;;;15.31;61.63
48517;BME280;34310;51.904;4.256;2023-04-29T03:33:49;101836.94;;;15.31;61.75
48517;BME280;34310;51.904;4.256;2023-04-29T03:36:17;101836.94;;;15.31;61.64
48517;BME280;34310;51.904;4.256;2023-04-29T03:38:44;101844.75;;;15.31;61.63
48517;BME280;34310;51.904;4.256;2023-04-29T03:41:11;101835.16;;;15.30;61.69
48517;BME280;34310;51.904;4.256;2023-04-29T03:43:39;101835.16;;;15.30;61.65
48517;BME280;34310;51.904;4.256;2023-04-29T03:46:06;101835.16;;;15.30;61.76
48517;BME280;34310;51.904;4.256;2023-04-29T03:48:34;101842.06;;;15.30;61.74
48517;BME280;34310;51.904;4.256;2023-04-29T03:51:02;101838.53;;;15.29;61.80
48517;BME280;34310;51.904;4.256;2023-04-29T03:53:29;101845.44;;;15.29;61.70
48517;BME280;34310;51.904;4.256;2023-04-29T03:55:56;101837.53;;;15.27;61.76
48517;BME280;34310;51.904;4.256;2023-04-29T03:58:24;101841.03;;;15.28;61.85
48517;BME280;34310;51.904;4.256;2023-04-29T04:00:51;101843.66;;;15.28;61.86
48517;BME280;34310;51.904;4.256;2023-04-29T04:03:18;101845.34;;;15.27;61.75
48517;BME280;34310;51.904;4.256;2023-04-29T04:05:46;101847.94;;;15.27;61.85
48517;BME280;34310;51.904;4.256;2023-04-29T04:08:13;101846.16;;;15.26;61.94
48517;BME280;34310;51.904;4.256;2023-04-29T04:10:41;101853.16;;;15.27;61.79
48517;BME280;34310;51.904;4.256;2023-04-29T04:13:08;101854.97;;;15.28;61.79
48517;BME280;34310;51.904;4.256;2023-04-29T04:15:35;101857.47;;;15.27;61.88
48517;BME280;34310;51.904;4.256;2023-04-29T04:18:03;101856.56;;;15.26;61.87
48517;BME280;34310;51.904;4.256;2023-04-29T04:20:30;101859.16;;;15.26;61.83
48517;BME280;34310;51.904;4.256;2023-04-29T04:22:57;101863.47;;;15.26;61.72
48517;BME280;34310;51.904;4.256;2023-04-29T04:25:25;101870.38;;;15.25;61.82
48517;BME280;34310;51.904;4.256;2023-04-29T04:27:52;101874.66;;;15.25;61.88
48517;BME280;34310;51.904;4.256;2023-04-29T04:30:20;101879.97;;;15.26;61.89
48517;BME280;34310;51.904;4.256;2023-04-29T04:32:47;101879.88;;;15.25;61.88
48517;BME280;34310;51.904;4.256;2023-04-29T04:35:15;101881.56;;;15.24;61.88
48517;BME280;34310;51.904;4.256;2023-04-29T04:37:43;101884.16;;;15.24;61.92
48517;BME280;34310;51.904;4.256;2023-04-29T04:40:11;101884.16;;;15.24;61.76
48517;BME280;34310;51.904;4.256;2023-04-29T04:42:39;101889.28;;;15.23;61.81
48517;BME280;34310;51.904;4.256;2023-04-29T04:45:07;101894.47;;;15.23;62.03
48517;BME280;34310;51.904;4.256;2023-04-29T04:47:38;101899.69;;;15.23;62.05
48517;BME280;34310;51.904;4.256;2023-04-29T04:50:07;101899.69;;;15.23;61.92
48517;BME280;34310;51.904;4.256;2023-04-29T04:52:35;101901.38;;;15.22;61.93
48517;BME280;34310;51.904;4.256;2023-04-29T04:55:02;101911.78;;;15.22;61.98
48517;BME280;34310;51.904;4.256;2023-04-29T04:57:29;101913.47;;;15.22;61.90
48517;BME280;34310;51.904;4.256;2023-04-29T04:59:56;101912.56;;;15.21;62.08
48517;BME280;34310;51.904;4.256;2023-04-29T05:02:24;101925.59;;;15.21;62.08
48517;BME280;34310;51.904;4.256;2023-04-29T05:04:52;101916.09;;;15.22;61.87
48517;BME280;34310;51.904;4.256;2023-04-29T05:07:19;101923.00;;;15.21;61.94
48517;BME280;34310;51.904;4.256;2023-04-29T05:09:46;101916.88;;;15.21;61.91
48517;BME280;34310;51.904;4.256;2023-04-29T05:12:14;101929.09;;;15.22;61.92
48517;BME280;34310;51.904;4.256;2023-04-29T05:14:41;101921.19;;;15.20;62.05
48517;BME280;34310;51.904;4.256;2023-04-29T05:17:09;101929.88;;;15.21;62.02
48517;BME280;34310;51.904;4.256;2023-04-29T05:19:37;101940.28;;;15.21;61.94
48517;BME280;34310;51.904;4.256;2023-04-29T05:22:04;101939.38;;;15.20;62.03
48517;BME280;34310;51.904;4.256;2023-04-29T05:24:31;101943.69;;;15.19;62.00
48517;BME280;34310;51.904;4.256;2023-04-29T05:26:59;101943.78;;;15.21;62.03
48517;BME280;34310;51.904;4.256;2023-04-29T05:29:26;101948.09;;;15.21;61.92
48517;BME280;34310;51.904;4.256;2023-04-29T05:31:54;101947.19;;;15.20;61.87
48517;BME280;34310;51.904;4.256;2023-04-29T05:34:21;101954.09;;;15.19;62.05
48517;BME280;34310;51.904;4.256;2023-04-29T05:36:48;101955.91;;;15.21;61.89
48517;BME280;34310;51.904;4.256;2023-04-29T05:39:16;101962.00;;;15.21;61.93
48517;BME280;34310;51.904;4.256;2023-04-29T05:41:43;101964.63;;;15.21;61.86
48517;BME280;34310;51.904;4.256;2023-04-29T05:44:11;101961.09;;;15.21;61.95
48517;BME280;34310;51.904;4.256;2023-04-29T05:46:38;101960.22;;;15.20;61.93
48517;BME280;34310;51.904;4.256;2023-04-29T05:49:06;101962.81;;;15.20;62.00
48517;BME280;34310;51.904;4.256;2023-04-29T05:51:33;101967.09;;;15.19;61.86
48517;BME280;34310;51.904;4.256;2023-04-29T05:54:01;101972.31;;;15.19;61.89
48517;BME280;34310;51.904;4.256;2023-04-29T05:56:28;101969.72;;;15.19;61.99
48517;BME280;34310;51.904;4.256;2023-04-29T05:58:55;101986.13;;;15.18;62.03
48517;BME280;34310;51.904;4.256;2023-04-29T06:01:23;101988.81;;;15.20;62.13
48517;BME280;34310;51.904;4.256;2023-04-29T06:03:50;101993.13;;;15.19;61.93
48517;BME280;34310;51.904;4.256;2023-04-29T06:06:18;102003.63;;;15.21;61.93
48517;BME280;34310;51.904;4.256;2023-04-29T06:08:45;102000.94;;;15.19;62.00
48517;BME280;34310;51.904;4.256;2023-04-29T06:11:13;102006.13;;;15.19;61.89
48517;BME280;34310;51.904;4.256;2023-04-29T06:13:40;102006.13;;;15.19;61.89
48517;BME280;34310;51.904;4.256;2023-04-29T06:16:08;102008.84;;;15.21;61.91
48517;BME280;34310;51.904;4.256;2023-04-29T06:18:36;102013.13;;;15.21;61.91
48517;BME280;34310;51.904;4.256;2023-04-29T06:21:04;102007.81;;;15.19;62.00
48517;BME280;34310;51.904;4.256;2023-04-29T06:23:31;102018.34;;;15.21;61.85
48517;BME280;34310;51.904;4.256;2023-04-29T06:25:58;102020.03;;;15.20;61.84
48517;BME280;34310;51.904;4.256;2023-04-29T06:28:26;102020.94;;;15.21;62.03
48517;BME280;34310;51.904;4.256;2023-04-29T06:30:54;102024.44;;;15.21;61.85
48517;BME280;34310;51.904;4.256;2023-04-29T06:33:21;102024.34;;;15.19;62.02
48517;BME280;34310;51.904;4.256;2023-04-29T06:35:48;102031.34;;;15.21;61.95
48517;BME280;34310;51.904;4.256;2023-04-29T06:38:16;102040.06;;;15.21;61.87
48517;BME280;34310;51.904;4.256;2023-04-29T06:40:43;102045.25;;;15.21;61.99
48517;BME280;34310;51.904;4.256;2023-04-29T06:43:10;102048.66;;;15.20;61.80
48517;BME280;34310;51.904;4.256;2023-04-29T06:45:37;102044.34;;;15.21;61.84
48517;BME280;34310;51.904;4.256;2023-04-29T06:48:05;102058.28;;;15.21;61.88
48517;BME280;34310;51.904;4.256;2023-04-29T06:50:33;102063.47;;;15.21;62.03
48517;BME280;34310;51.904;4.256;2023-04-29T06:53:00;102060.88;;;15.21;61.99
48517;BME280;34310;51.904;4.256;2023-04-29T06:55:28;102063.47;;;15.21;61.88
48517;BME280;34310;51.904;4.256;2023-04-29T06:57:55;102063.47;;;15.21;61.88
48517;BME280;34310;51.904;4.256;2023-04-29T07:00:23;102072.19;;;15.22;61.91
48517;BME280;34310;51.904;4.256;2023-04-29T07:02:50;102072.19;;;15.22;62.01
48517;BME280;34310;51.904;4.256;2023-04-29T07:05:18;102079.09;;;15.21;62.07
48517;BME280;34310;51.904;4.256;2023-04-29T07:07:45;102084.28;;;15.21;61.94
48517;BME280;34310;51.904;4.256;2023-04-29T07:10:13;102082.59;;;15.22;61.95
48517;BME280;34310;51.904;4.256;2023-04-29T07:12:40;102087.78;;;15.22;61.82
48517;BME280;34310;51.904;4.256;2023-04-29T07:15:08;102093.91;;;15.22;61.91
48517;BME280;34310;51.904;4.256;2023-04-29T07:17:35;102093.91;;;15.22;61.92
48517;BME280;34310;51.904;4.256;2023-04-29T07:20:03;102090.50;;;15.23;61.75
48517;BME280;34310;51.904;4.256;2023-04-29T07:22:30;102090.50;;;15.23;61.78
48517;BME280;34310;51.904;4.256;2023-04-29T07:24:57;102100.91;;;15.23;61.72
48517;BME280;34310;51.904;4.256;2023-04-29T07:27:25;102098.31;;;15.23;61.74
48517;BME280;34310;51.904;4.256;2023-04-29T07:29:52;102098.31;;;15.23;61.82
48517;BME280;34310;51.904;4.256;2023-04-29T07:32:19;102102.72;;;15.24;61.82
48517;BME280;34310;51.904;4.256;2023-04-29T07:34:47;102094.91;;;15.24;61.86
48517;BME280;34310;51.904;4.256;2023-04-29T07:37:14;102098.41;;;15.25;61.86
48517;BME280;34310;51.904;4.256;2023-04-29T07:39:42;102096.72;;;15.25;61.82
48517;BME280;34310;51.904;4.256;2023-04-29T07:42:09;102099.44;;;15.27;61.64
48517;BME280;34310;51.904;4.256;2023-04-29T07:44:36;102099.31;;;15.25;61.82
48517;BME280;34310;51.904;4.256;2023-04-29T07:47:04;102108.03;;;15.26;61.86
48517;BME280;34310;51.904;4.256;2023-04-29T07:49:32;102106.31;;;15.26;61.61
48517;BME280;34310;51.904;4.256;2023-04-29T07:51:59;102115.03;;;15.27;61.81
48517;BME280;34310;51.904;4.256;2023-04-29T07:54:26;102113.34;;;15.27;61.80
48517;BME280;34310;51.904;4.256;2023-04-29T07:56:54;102110.72;;;15.27;61.71
48517;BME280;34310;51.904;4.256;2023-04-29T07:59:23;102116.84;;;15.28;61.78
48517;BME280;34310;51.904;4.256;2023-04-29T08:01:50;102116.84;;;15.28;61.91
48517;BME280;34310;51.904;4.256;2023-04-29T08:04:18;102124.75;;;15.29;61.83
48517;BME280;34310;51.904;4.256;2023-04-29T08:06:46;102124.75;;;15.29;61.87
48517;BME280;34310;51.904;4.256;2023-04-29T08:09:15;102118.75;;;15.30;61.99
48517;BME280;34310;51.904;4.256;2023-04-29T08:11:42;102124.75;;;15.29;61.87
48517;BME280;34310;51.904;4.256;2023-04-29T08:14:11;102130.97;;;15.31;61.76
48517;BME280;34310;51.904;4.256;2023-04-29T08:16:38;102135.28;;;15.31;61.82
48517;BME280;34310;51.904;4.256;2023-04-29T08:19:05;102130.97;;;15.31;61.88
48517;BME280;34310;51.904;4.256;2023-04-29T08:21:33;102132.03;;;15.33;61.88
48517;BME280;34310;51.904;4.256;2023-04-29T08:24:00;102136.31;;;15.33;61.81
48517;BME280;34310;51.904;4.256;2023-04-29T08:26:28;102132.91;;;15.34;61.98
48517;BME280;34310;51.904;4.256;2023-04-29T08:28:55;102134.63;;;15.33;61.99
48517;BME280;34310;51.904;4.256;2023-04-29T08:31:23;102135.53;;;15.34;61.94
48517;BME280;34310;51.904;4.256;2023-04-29T08:33:50;102134.72;;;15.35;61.97
48517;BME280;34310;51.904;4.256;2023-04-29T08:36:18;102135.63;;;15.35;61.89
48517;BME280;34310;51.904;4.256;2023-04-29T08:38:45;102140.03;;;15.36;61.93
48517;BME280;34310;51.904;4.256;2023-04-29T08:41:14;102136.53;;;15.36;61.93
48517;BME280;34310;51.904;4.256;2023-04-29T08:43:43;102134.84;;;15.36;61.91
48517;BME280;34310;51.904;4.256;2023-04-29T08:46:10;102137.44;;;15.36;62.09
48517;BME280;34310;51.904;4.256;2023-04-29T08:48:39;102137.44;;;15.36;62.03
48517;BME280;34310;51.904;4.256;2023-04-29T08:51:13;102139.25;;;15.37;62.06
48517;BME280;34310;51.904;4.256;2023-04-29T08:53:41;102143.66;;;15.38;62.00
48517;BME280;34310;51.904;4.256;2023-04-29T08:56:12;102147.16;;;15.39;61.94
48517;BME280;34310;51.904;4.256;2023-04-29T08:58:42;102148.06;;;15.39;62.07
48517;BME280;34310;51.904;4.256;2023-04-29T09:01:10;102148.19;;;15.41;61.98
48517;BME280;34310;51.904;4.256;2023-04-29T09:03:57;102145.56;;;15.41;62.07
48517;BME280;34310;51.904;4.256;2023-04-29T09:06:30;102146.47;;;15.41;62.19
48517;BME280;34310;51.904;4.256;2023-04-29T09:09:00;102150.78;;;15.41;62.25
48517;BME280;34310;51.904;4.256;2023-04-29T09:11:30;102148.28;;;15.42;62.02
48517;BME280;34310;51.904;4.256;2023-04-29T09:14:02;102152.59;;;15.42;62.26
48517;BME280;34310;51.904;4.256;2023-04-29T09:16:30;102157.00;;;15.43;62.16
48517;BME280;34310;51.904;4.256;2023-04-29T09:18:57;102160.50;;;15.43;62.14
48517;BME280;34310;51.904;4.256;2023-04-29T09:21:27;102158.81;;;15.44;62.16
48517;BME280;34310;51.904;4.256;2023-04-29T09:23:56;102159.72;;;15.44;62.27
48517;BME280;34310;51.904;4.256;2023-04-29T09:26:24;102161.53;;;15.45;62.19
48517;BME280;34310;51.904;4.256;2023-04-29T09:29:08;102163.31;;;15.46;62.31
48517;BME280;34310;51.904;4.256;2023-04-29T09:31:37;102162.63;;;15.49;62.14
48517;BME280;34310;51.904;4.256;2023-04-29T09:34:05;102166.84;;;15.47;62.38
48517;BME280;34310;51.904;4.256;2023-04-29T09:39:14;102174.63;;;15.47;62.24
48517;BME280;34310;51.904;4.256;2023-04-29T09:41:57;102170.34;;;15.47;62.21
48517;BME280;34310;51.904;4.256;2023-04-29T09:44:32;102180.84;;;15.49;62.19
48517;BME280;34310;51.904;4.256;2023-04-29T09:47:06;102173.03;;;15.49;62.25
48517;BME280;34310;51.904;4.256;2023-04-29T09:52:09;102186.16;;;15.50;62.37
48517;BME280;34310;51.904;4.256;2023-04-29T09:54:38;102185.38;;;15.52;62.35
48517;BME280;34310;51.904;4.256;2023-04-29T09:57:07;102187.06;;;15.51;62.44
48517;BME280;34310;51.904;4.256;2023-04-29T09:59:37;102188.09;;;15.53;62.36
48517;BME280;34310;51.904;4.256;2023-04-29T10:02:16;102199.41;;;15.54;62.47
48517;BME280;34310;51.904;4.256;2023-04-29T10:04:53;102191.59;;;15.54;62.27
48517;BME280;34310;51.904;4.256;2023-04-29T10:07:25;102192.50;;;15.54;62.31
48517;BME280;34310;51.904;4.256;2023-04-29T10:09:54;102204.72;;;15.55;62.38
48517;BME280;34310;51.904;4.256;2023-04-29T10:12:22;102203.03;;;15.56;62.36
48517;BME280;34310;51.904;4.256;2023-04-29T10:18:20;102209.25;;;15.58;62.44
48517;BME280;34310;51.904;4.256;2023-04-29T10:20:48;102202.38;;;15.58;62.43
48517;BME280;34310;51.904;4.256;2023-04-29T10:23:17;102202.38;;;15.58;62.39
48517;BME280;34310;51.904;4.256;2023-04-29T10:25:46;102193.75;;;15.59;62.41
48517;BME280;34310;51.904;4.256;2023-04-29T10:28:15;102195.56;;;15.60;62.50
48517;BME280;34310;51.904;4.256;2023-04-29T10:30:44;102195.56;;;15.60;62.62
48517;BME280;34310;51.904;4.256;2023-04-29T10:33:12;102197.41;;;15.61;62.44
48517;BME280;34310;51.904;4.256;2023-04-29T10:35:43;102194.13;;;15.64;62.40
48517;BME280;34310;51.904;4.256;2023-04-29T10:38:16;102194.13;;;15.64;62.49
48517;BME280;34310;51.904;4.256;2023-04-29T10:40:47;102195.13;;;15.66;62.62
48517;BME280;34310;51.904;4.256;2023-04-29T10:43:15;102192.53;;;15.66;62.44
48517;BME280;34310;51.904;4.256;2023-04-29T10:45:48;102196.94;;;15.67;62.61
48517;BME280;34310;51.904;4.256;2023-04-29T10:48:16;102196.16;;;15.68;62.39
48517;BME280;34310;51.904;4.256;2023-04-29T10:53:16;102193.66;;;15.69;62.50
48517;BME280;34310;51.904;4.256;2023-04-29T10:55:52;102195.47;;;15.70;62.46
48517;BME280;34310;51.904;4.256;2023-04-29T10:58:40;102198.16;;;15.72;62.57
48517;BME280;34310;51.904;4.256;2023-04-29T11:01:13;102204.28;;;15.72;62.61
48517;BME280;34310;51.904;4.256;2023-04-29T11:04:04;102196.59;;;15.74;62.46
48517;BME280;34310;51.904;4.256;2023-04-29T11:14:31;102203.81;;;15.78;62.61
48517;BME280;34310;51.904;4.256;2023-04-29T11:17:01;102205.50;;;15.77;62.67
48517;BME280;34310;51.904;4.256;2023-04-29T11:19:33;102206.41;;;15.78;62.56
48517;BME280;34310;51.904;4.256;2023-04-29T11:22:24;102210.13;;;15.82;62.54
48517;BME280;34310;51.904;4.256;2023-04-29T11:25:05;102204.03;;;15.81;62.52
48517;BME280;34310;51.904;4.256;2023-04-29T11:27:35;102200.63;;;15.82;62.55
48517;BME280;34310;51.904;4.256;2023-04-29T11:30:04;102198.94;;;15.83;62.58
48517;BME280;34310;51.904;4.256;2023-04-29T11:32:34;102203.34;;;15.84;62.73
48517;BME280;34310;51.904;4.256;2023-04-29T11:35:22;102201.75;;;15.86;62.69
48517;BME280;34310;51.904;4.256;2023-04-29T11:37:50;102205.25;;;15.86;62.67
48517;BME280;34310;51.904;4.256;2023-04-29T11:40:18;102209.66;;;15.87;62.67
48517;BME280;34310;51.904;4.256;2023-04-29T11:42:47;102203.66;;;15.88;62.70
48517;BME280;34310;51.904;4.256;2023-04-29T11:45:19;102195.94;;;15.90;62.65
48517;BME280;34310;51.904;4.256;2023-04-29T11:47:47;102202.09;;;15.90;62.83
48517;BME280;34310;51.904;4.256;2023-04-29T11:50:17;102202.22;;;15.92;62.85
48517;BME280;34310;51.904;4.256;2023-04-29T11:52:46;102203.09;;;15.92;62.69
48517;BME280;34310;51.904;4.256;2023-04-29T11:55:15;102201.50;;;15.94;62.80
48517;BME280;34310;51.904;4.256;2023-04-29T11:57:43;102199.03;;;15.96;62.70
48517;BME280;34310;51.904;4.256;2023-04-29T12:00:13;102201.72;;;15.97;62.73
48517;BME280;34310;51.904;4.256;2023-04-29T12:02:45;102206.25;;;16.00;62.82
48517;BME280;34310;51.904;4.256;2023-04-29T12:05:13;102198.44;;;16.00;62.84
48517;BME280;34310;51.904;4.256;2023-04-29T12:07:43;102208.97;;;16.01;62.80
48517;BME280;34310;51.904;4.256;2023-04-29T12:10:11;102206.47;;;16.03;62.94
48517;BME280;34310;51.904;4.256;2023-04-29T12:12:39;102217.00;;;16.04;62.87
48517;BME280;34310;51.904;4.256;2023-04-29T12:15:09;102210.97;;;16.05;62.83
48517;BME280;34310;51.904;4.256;2023-04-29T12:17:37;102211.88;;;16.06;62.98
48517;BME280;34310;51.904;4.256;2023-04-29T12:20:06;102213.69;;;16.07;62.86
48517;BME280;34310;51.904;4.256;2023-04-29T12:22:35;102216.50;;;16.10;62.85
48517;BME280;34310;51.904;4.256;2023-04-29T12:25:03;102217.41;;;16.10;63.05
48517;BME280;34310;51.904;4.256;2023-04-29T12:27:31;102222.72;;;16.12;62.95
48517;BME280;34310;51.904;4.256;2023-04-29T12:30:00;102227.25;;;16.15;63.02
48517;BME280;34310;51.904;4.256;2023-04-29T12:32:27;102228.16;;;16.15;62.79
48517;BME280;34310;51.904;4.256;2023-04-29T12:34:55;102219.53;;;16.16;63.14
48517;BME280;34310;51.904;4.256;2023-04-29T12:37:22;102223.94;;;16.17;62.98
48517;BME280;34310;51.904;4.256;2023-04-29T12:39:50;102221.44;;;16.19;62.89
48517;BME280;34310;51.904;4.256;2023-04-29T12:42:18;102225.09;;;16.21;63.04
48517;BME280;34310;51.904;4.256;2023-04-29T12:44:46;102220.00;;;16.22;62.93
48517;BME280;34310;51.904;4.256;2023-04-29T12:47:15;102225.31;;;16.24;62.93
48517;BME280;34310;51.904;4.256;2023-04-29T12:49:46;102226.31;;;16.26;63.11
48517;BME280;34310;51.904;4.256;2023-04-29T12:52:14;102227.22;;;16.26;62.98
48517;BME280;34310;51.904;4.256;2023-04-29T12:54:42;102225.63;;;16.28;63.09
48517;BME280;34310;51.904;4.256;2023-04-29T12:57:11;102226.63;;;16.30;63.09
48517;BME280;34310;51.904;4.256;2023-04-29T12:59:38;102230.16;;;16.31;62.93
48517;BME280;34310;51.904;4.256;2023-04-29T13:02:07;102220.84;;;16.34;63.07
48517;BME280;34310;51.904;4.256;2023-04-29T13:04:35;102225.16;;;16.34;63.05
48517;BME280;34310;51.904;4.256;2023-04-29T13:07:02;102234.88;;;16.36;62.99
48517;BME280;34310;51.904;4.256;2023-04-29T13:09:30;102232.38;;;16.38;63.10
48517;BME280;34310;51.904;4.256;2023-04-29T13:11:58;102236.78;;;16.39;63.03
48517;BME280;34310;51.904;4.256;2023-04-29T13:14:25;102233.38;;;16.40;63.19
48517;BME280;34310;51.904;4.256;2023-04-29T13:16:53;102229.19;;;16.42;63.10
48517;BME280;34310;51.904;4.256;2023-04-29T13:19:20;102239.81;;;16.45;63.12
48517;BME280;34310;51.904;4.256;2023-04-29T13:21:51;102232.91;;;16.46;63.04
48517;BME280;34310;51.904;4.256;2023-04-29T13:24:19;102231.19;;;16.46;63.12
48517;BME280;34310;51.904;4.256;2023-04-29T13:26:47;102241.88;;;16.49;63.13